Anuket Opal — 3ELT2 — position and weather

sailwx.info

Track history (hours):
 
Tides and Currents Weather Stations Pressure Air Temp Water Temp Dewpoint Dewpoint Depression Visibility Wind Speed Wind Dir Waves Ship Positions

Anuket Opal

Last reported at 2018-May-17 15:05 UTC. Time now 2018-Jun-25 02:06 UTC.
Position N 05°22' E 001°35'.
Warning: this ship's position is 38 days out of date.

Length 122 m; draft 5.7 m.

Type: Tanker. MMSI: 356387000.

Date/timePositionNaut miles runAvg speedWind from/ knotsBaromVisibWave heightAir tempDewpointWater temp
2018-May-17 15:05N 05°22' E 001°35'  
2018-May-09 21:59S 08°27' E 012°36'2 1.4
2018-May-09 20:16S 08°25' E 012°37'28 0.8
2018-May-08 08:33S 08°49' E 012°22'5 9.3
2018-May-08 08:02S 08°44' E 012°22'110.3
2018-May-08 07:58S 08°44' E 012°22'610.5
2018-May-08 07:26S 08°38' E 012°22'410.6
2018-May-08 07:00S 08°33' E 012°22'710.5
2018-May-08 06:22S 08°27' E 012°22'2 0.6
2018-May-08 03:22S 08°25' E 012°21'0 0.8
2018-May-08 02:50S 08°26' E 012°21'2 0.9
2018-May-08 00:35S 08°27' E 012°21'0 1.1
2018-May-08 00:30S 08°28' E 012°21'3 0.9
2018-May-07 21:32S 08°30' E 012°21'0 0.8
2018-May-07 21:26S 08°30' E 012°21'0 0.9
2018-May-07 20:57S 08°31' E 012°21'1 0.9
2018-May-07 20:00S 08°31' E 012°21'  
Track history (hours):
 
Tides and Currents Weather Stations Pressure Air Temp Water Temp Dewpoint Dewpoint Depression Visibility Wind Speed Wind Dir Waves Ship Positions

Anuket Opal

Last reported at 2018-May-17 15:05 UTC. Time now 2018-Jun-25 02:06 UTC.
Position N 05°22' E 001°35'.
Warning: this ship's position is 38 days out of date.

Length 122 m; draft 5.7 m.

Type: Tanker. MMSI: 356387000.

Date/timePositionNaut miles runAvg speedWind from/ knotsBaromVisibWave heightAir tempDewpointWater temp
2018-May-17 15:05N 05°22' E 001°35'  
2018-May-09 21:59S 08°27' E 012°36'2 1.4
2018-May-09 20:16S 08°25' E 012°37'28 0.8
2018-May-08 08:33S 08°49' E 012°22'5 9.3
2018-May-08 08:02S 08°44' E 012°22'110.3
2018-May-08 07:58S 08°44' E 012°22'610.5
2018-May-08 07:26S 08°38' E 012°22'410.6
2018-May-08 07:00S 08°33' E 012°22'710.5
2018-May-08 06:22S 08°27' E 012°22'2 0.6
2018-May-08 03:22S 08°25' E 012°21'0 0.8
2018-May-08 02:50S 08°26' E 012°21'2 0.9
2018-May-08 00:35S 08°27' E 012°21'0 1.1
2018-May-08 00:30S 08°28' E 012°21'3 0.9
2018-May-07 21:32S 08°30' E 012°21'0 0.8
2018-May-07 21:26S 08°30' E 012°21'0 0.9
2018-May-07 20:57S 08°31' E 012°21'1 0.9
2018-May-07 20:00S 08°31' E 012°21'  

Dump ship's entire track history